Terminal Aerodrome Forecast
Issued by NWS

Home | Current Version | Previous Version | Text Only | Print | Product List | Glossary On
Versions: 1 2 3 4 5 6 7 8 9 10 11 12 13 14 15 16 17 18 19 20 21 22 23 24 25 26 27 28
000
FTPQ31 PGUM 182327
TAFGUM
TAF

TAF
PTKK 182327Z 1900/1924 VRB05KT P6SM VCTS SCT012CB SCT030 BKN120
      TEMPO 1900/1903 2SM +SHRA SCT011 OVC025
     FM190400 07007KT P6SM VCSH SCT014 SCT030 BKN120=

USA.gov is the U.S. government's official web portal to all federal, state and local government web resources and services.